Time;durP1;ratioP1;P1;durP2;ratioP2;P2;SDS_P1;SDS_P2;PMS_P1;PMS_P2;Temp;Humidity;BMP_temperature;BMP_pressure;BME280_temperature;BME280_humidity;BME280_pressure;Samples;Min_cycle;Max_cycle;Signal;HPM_P1;HPM_P2
2022/04/13 00:02:15;;;;;;;11.47;7.03;;;8.30;1.00;;;;;;5111943;28;20563;-73
2022/04/13 00:04:42;;;;;;;9.10;6.23;;;8.40;99.90;;;;;;5112765;28;20207;-73
2022/04/13 00:07:09;;;;;;;7.80;5.87;;;8.30;1.00;;;;;;5111912;28;20668;-73
2022/04/13 00:09:37;;;;;;;8.70;6.00;;;8.20;99.90;;;;;;5111988;28;20207;-73
2022/04/13 00:12:04;;;;;;;9.17;5.80;;;8.10;1.00;;;;;;5112109;28;20216;-73
2022/04/13 00:14:32;;;;;;;11.60;6.47;;;8.10;76.00;;;;;;5112312;28;20216;-73
2022/04/13 00:16:59;;;;;;;8.23;5.97;;;8.20;99.90;;;;;;5112078;28;20196;-73
2022/04/13 00:19:26;;;;;;;9.17;6.13;;;8.20;1.00;;;;;;5111575;28;20208;-73
2022/04/13 00:21:53;;;;;;;10.00;6.40;;;8.30;1.00;;;;;;5111514;28;20607;-73
2022/04/13 00:24:20;;;;;;;10.87;6.90;;;8.10;1.00;;;;;;5112226;28;20201;-73
2022/04/13 00:26:48;;;;;;;8.23;6.10;;;7.90;1.00;;;;;;5112665;28;20567;-73
2022/04/13 00:29:15;;;;;;;10.90;6.80;;;7.90;1.00;;;;;;5115378;28;20203;-73
2022/04/13 00:31:41;;;;;;;9.80;6.40;;;7.70;1.00;;;;;;5115969;28;20697;-73
2022/04/13 00:34:08;;;;;;;9.70;6.40;;;7.70;1.00;;;;;;5116115;28;20212;-73
2022/04/13 00:36:35;;;;;;;10.07;6.80;;;7.70;1.00;;;;;;5115626;28;20289;-73
2022/04/13 00:39:02;;;;;;;10.07;6.57;;;7.70;1.00;;;;;;5116158;28;20211;-73
2022/04/13 00:41:29;;;;;;;10.33;6.83;;;7.70;1.00;;;;;;5115561;28;20193;-73
2022/04/13 00:44:08;;;;;;;9.87;6.50;;;7.80;1.00;;;;;;5115496;28;20204;-73
2022/04/13 00:46:35;;;;;;;12.03;6.57;;;7.80;1.00;;;;;;5114829;28;20193;-73
2022/04/13 00:49:03;;;;;;;13.87;6.80;;;7.80;1.00;;;;;;5115122;28;20663;-73
2022/04/13 00:51:30;;;;;;;10.87;6.73;;;7.80;1.00;;;;;;5115275;28;20228;-74
2022/04/13 00:53:58;;;;;;;11.00;7.30;;;7.80;1.00;;;;;;5115506;28;20212;-73
2022/04/13 00:56:27;;;;;;;10.63;6.60;;;7.90;99.90;;;;;;5114970;28;20207;-73
2022/04/13 00:58:56;;;;;;;11.47;6.77;;;7.90;44.10;;;;;;5115611;28;20209;-74
2022/04/13 01:01:26;;;;;;;11.43;7.03;;;7.80;99.90;;;;;;5115461;28;20200;-73
2022/04/13 01:03:54;;;;;;;11.70;6.87;;;7.70;1.00;;;;;;5115009;28;20262;-73
2022/04/13 01:06:21;;;;;;;10.17;7.10;;;7.70;1.00;;;;;;5116150;28;20201;-73
2022/04/13 01:08:50;;;;;;;11.53;7.10;;;7.60;1.00;;;;;;5118104;27;20680;-73
2022/04/13 01:11:18;;;;;;;12.93;7.03;;;7.50;1.00;;;;;;5115203;28;20244;-73
2022/04/13 01:13:45;;;;;;;13.00;7.60;;;7.40;1.00;;;;;;5115528;28;20204;-73
2022/04/13 01:16:11;;;;;;;10.63;6.43;;;7.50;1.00;;;;;;5115460;28;20209;-73
2022/04/13 01:18:40;;;;;;;10.83;6.50;;;7.60;99.90;;;;;;5115104;27;20635;-73
2022/04/13 01:21:12;;;;;;;10.07;6.90;;;7.70;99.90;;;;;;5110013;28;20552;-73
2022/04/13 01:23:40;;;;;;;10.20;6.60;;;7.70;99.90;;;;;;5103304;28;20252;-73
2022/04/13 01:26:10;;;;;;;9.60;6.63;;;7.70;99.90;;;;;;5114235;28;20204;-73
2022/04/13 01:28:37;;;;;;;10.20;6.97;;;7.50;1.00;;;;;;5114257;28;20205;-73
2022/04/13 01:31:04;;;;;;;11.20;6.93;;;7.20;1.00;;;;;;5114716;28;20216;-73
2022/04/13 01:33:31;;;;;;;10.97;7.00;;;7.10;1.00;;;;;;5115259;28;20544;-73
2022/04/13 01:36:00;;;;;;;11.97;6.87;;;7.10;24.30;;;;;;5115327;28;20223;-73
2022/04/13 01:38:27;;;;;;;15.53;7.10;;;7.30;1.00;;;;;;5114863;28;20288;-73
2022/04/13 01:40:56;;;;;;;12.17;7.20;;;7.30;1.00;;;;;;5114265;28;20279;-73
2022/04/13 01:43:23;;;;;;;13.47;6.97;;;7.40;1.00;;;;;;5114340;28;20208;-73
2022/04/13 01:45:50;;;;;;;11.70;6.87;;;7.30;1.00;;;;;;5114701;28;20581;-73
2022/04/13 01:48:18;;;;;;;10.07;6.93;;;7.30;1.00;;;;;;5114714;28;20200;-73
2022/04/13 01:50:45;;;;;;;12.67;7.13;;;7.30;1.00;;;;;;5114566;28;20251;-73
2022/04/13 01:53:11;;;;;;;12.07;6.70;;;7.30;1.00;;;;;;5115351;28;20676;-73
2022/04/13 01:55:38;;;;;;;11.60;6.90;;;7.30;1.00;;;;;;5113871;28;20200;-73
2022/04/13 01:58:07;;;;;;;11.90;7.07;;;7.30;1.00;;;;;;5115089;28;20673;-73
2022/04/13 02:00:34;;;;;;;10.20;6.73;;;7.40;1.00;;;;;;5114540;28;20189;-74
2022/04/13 02:03:01;;;;;;;9.63;6.23;;;7.20;1.00;;;;;;5114380;28;20201;-74
2022/04/13 02:05:28;;;;;;;9.97;6.53;;;7.20;1.00;;;;;;5114660;28;20193;-73
2022/04/13 02:07:54;;;;;;;10.50;6.50;;;7.10;1.00;;;;;;5114045;28;20212;-73
2022/04/13 02:10:21;;;;;;;12.90;7.53;;;7.00;1.00;;;;;;5102768;28;20212;-73
2022/04/13 02:12:48;;;;;;;11.67;7.77;;;6.80;1.00;;;;;;5114455;28;20220;-73
2022/04/13 02:15:17;;;;;;;13.50;8.13;;;6.70;1.00;;;;;;5114081;28;20357;-73
2022/04/13 02:17:43;;;;;;;13.17;8.07;;;6.70;85.70;;;;;;5113378;28;20197;-73
2022/04/13 02:20:11;;;;;;;15.43;8.57;;;6.60;99.90;;;;;;5113228;28;20201;-73
2022/04/13 02:22:38;;;;;;;14.60;8.37;;;6.70;99.90;;;;;;5113408;28;20920;-73
2022/04/13 02:25:07;;;;;;;14.20;7.97;;;6.70;99.90;;;;;;5113375;28;20566;-73
2022/04/13 02:27:34;;;;;;;15.27;8.17;;;6.90;22.30;;;;;;5113867;28;20209;-73
2022/04/13 02:30:00;;;;;;;13.63;8.47;;;7.20;1.00;;;;;;5113980;28;20197;-73
2022/04/13 02:32:29;;;;;;;14.13;8.37;;;7.20;1.00;;;;;;5113474;28;20721;-73
2022/04/13 02:34:56;;;;;;;15.43;8.20;;;7.20;1.00;;;;;;5099740;28;20235;-73
2022/04/13 02:37:22;;;;;;;14.30;8.47;;;7.10;1.00;;;;;;5113338;28;20197;-73
2022/04/13 02:39:49;;;;;;;15.37;8.40;;;7.00;1.00;;;;;;5113687;28;20208;-73
2022/04/13 02:42:16;;;;;;;14.17;8.47;;;6.90;1.00;;;;;;5113205;28;20201;-73
2022/04/13 02:44:43;;;;;;;16.43;8.97;;;6.80;1.00;;;;;;5113498;28;20211;-73
2022/04/13 02:47:10;;;;;;;14.43;8.90;;;6.80;1.00;;;;;;5112932;28;20193;-73
2022/04/13 02:49:38;;;;;;;14.17;8.70;;;6.70;1.00;;;;;;5112547;28;20541;-73
2022/04/13 02:52:06;;;;;;;17.27;9.67;;;6.70;8.00;;;;;;5113062;28;20223;-73
2022/04/13 02:54:33;;;;;;;16.40;9.87;;;6.80;1.00;;;;;;5114226;28;20205;-73
2022/04/13 02:57:00;;;;;;;15.63;9.03;;;6.80;18.50;;;;;;5112800;28;20201;-73
2022/04/13 02:59:27;;;;;;;17.13;9.00;;;6.70;24.30;;;;;;5113987;28;20558;-73
2022/04/13 03:01:54;;;;;;;13.17;8.00;;;6.80;17.40;;;;;;5112248;28;20201;-73
2022/04/13 03:04:21;;;;;;;15.83;9.27;;;6.70;1.00;;;;;;5112325;28;20261;-73
2022/04/13 03:06:49;;;;;;;12.67;8.63;;;6.80;12.70;;;;;;5113259;28;20670;-73
2022/04/13 03:09:16;;;;;;;16.97;9.73;;;6.70;1.00;;;;;;5112745;28;20196;-73
2022/04/13 03:11:43;;;;;;;15.07;9.57;;;6.70;1.00;;;;;;5112450;28;20591;-73
2022/04/13 03:14:09;;;;;;;13.90;8.80;;;6.70;99.90;;;;;;5113164;28;20199;-73
2022/04/13 03:16:36;;;;;;;14.20;8.73;;;6.60;33.10;;;;;;5113108;28;20189;-73
2022/04/13 03:19:03;;;;;;;14.87;8.20;;;6.60;4.80;;;;;;5108925;28;20201;-74
2022/04/13 03:21:30;;;;;;;15.40;9.00;;;6.60;13.10;;;;;;5112383;28;20622;-73
2022/04/13 03:23:58;;;;;;;16.07;9.17;;;6.70;1.90;;;;;;5111079;28;20201;-73
2022/04/13 03:26:25;;;;;;;13.87;8.63;;;6.80;1.00;;;;;;5111837;28;20197;-73
2022/04/13 03:28:53;;;;;;;14.97;8.27;;;6.70;1.00;;;;;;5111544;28;20207;-73
2022/04/13 03:31:20;;;;;;;15.10;9.00;;;6.70;1.00;;;;;;5112224;27;20625;-73
2022/04/13 03:33:47;;;;;;;15.00;8.77;;;6.60;1.00;;;;;;5112989;28;20203;-73
2022/04/13 03:36:16;;;;;;;15.43;9.20;;;6.60;1.00;;;;;;5112446;28;20207;-73
2022/04/13 03:38:43;;;;;;;14.00;8.80;;;6.70;1.00;;;;;;5112398;28;20210;-73
2022/04/13 03:41:11;;;;;;;15.10;9.17;;;6.80;1.00;;;;;;5111819;28;20565;-73
2022/04/13 03:43:38;;;;;;;15.67;9.43;;;6.60;1.00;;;;;;5112953;28;20203;-73
2022/04/13 03:46:04;;;;;;;15.37;9.40;;;6.50;1.00;;;;;;5112691;28;20201;-72
2022/04/13 03:48:31;;;;;;;16.13;9.53;;;6.40;1.00;;;;;;5112488;28;20560;-73
2022/04/13 03:50:59;;;;;;;15.37;9.20;;;6.50;1.00;;;;;;5110927;28;20197;-72
2022/04/13 03:53:25;;;;;;;16.50;9.53;;;6.70;1.00;;;;;;5111551;28;20303;-73
2022/04/13 03:55:53;;;;;;;20.30;9.93;;;6.70;1.00;;;;;;5111742;28;20567;-73
2022/04/13 03:58:21;;;;;;;14.97;9.17;;;6.70;1.00;;;;;;5112114;28;20207;-73
2022/04/13 04:00:48;;;;;;;17.20;9.93;;;6.70;1.00;;;;;;5111143;28;20193;-73
2022/04/13 04:03:15;;;;;;;17.50;10.00;;;6.80;1.00;;;;;;5111222;28;20197;-73
2022/04/13 04:05:42;;;;;;;17.00;8.70;;;6.90;1.00;;;;;;5111783;28;20672;-73
2022/04/13 04:08:09;;;;;;;16.87;8.90;;;6.90;1.00;;;;;;5112143;28;20201;-73
2022/04/13 04:10:36;;;;;;;17.10;9.57;;;6.90;1.00;;;;;;5111502;28;20209;-70
2022/04/13 04:13:02;;;;;;;13.93;8.57;;;6.80;1.00;;;;;;5112106;28;20229;-70
2022/04/13 04:15:31;;;;;;;15.90;9.03;;;6.80;1.00;;;;;;5111904;28;20228;-71
2022/04/13 04:17:57;;;;;;;14.77;8.73;;;6.70;1.00;;;;;;5112633;28;20710;-70
2022/04/13 04:20:24;;;;;;;15.23;8.90;;;6.90;1.00;;;;;;5111618;28;20215;-70
2022/04/13 04:22:51;;;;;;;16.40;9.60;;;6.90;1.00;;;;;;5111669;28;20216;-70
2022/04/13 04:25:18;;;;;;;15.87;9.37;;;6.90;1.00;;;;;;5111028;28;20219;-70
2022/04/13 04:27:45;;;;;;;18.53;10.10;;;6.80;1.00;;;;;;5110845;28;20197;-70
2022/04/13 04:30:12;;;;;;;14.63;9.17;;;6.70;1.00;;;;;;5111341;28;20200;-70
2022/04/13 04:32:40;;;;;;;15.80;9.33;;;6.80;1.00;;;;;;5111111;28;20225;-70
2022/04/13 04:35:08;;;;;;;15.53;8.87;;;6.70;1.00;;;;;;5112204;28;20204;-70
2022/04/13 04:37:35;;;;;;;17.43;9.87;;;6.70;1.00;;;;;;5111511;28;20280;-70
2022/04/13 04:40:03;;;;;;;14.40;8.67;;;6.60;1.00;;;;;;5111846;28;20203;-70
2022/04/13 04:42:29;;;;;;;16.67;8.70;;;6.70;1.00;;;;;;5110974;28;20284;-70
2022/04/13 04:44:57;;;;;;;13.97;8.33;;;6.50;1.00;;;;;;5111174;28;20205;-70
2022/04/13 04:47:25;;;;;;;13.73;8.70;;;6.50;98.80;;;;;;5111373;28;20615;-70
2022/04/13 04:49:53;;;;;;;12.10;8.67;;;6.40;99.90;;;;;;5112014;28;20549;-70
2022/04/13 04:52:20;;;;;;;15.47;8.63;;;6.30;99.90;;;;;;5111855;28;20471;-70
2022/04/13 04:54:47;;;;;;;15.47;8.77;;;6.50;99.90;;;;;;5112223;28;20541;-70
2022/04/13 04:57:14;;;;;;;15.87;9.63;;;6.60;99.90;;;;;;5110817;28;20196;-70
2022/04/13 04:59:40;;;;;;;17.77;9.03;;;6.70;99.90;;;;;;5111912;28;20222;-70
2022/04/13 05:02:07;;;;;;;15.47;8.77;;;6.80;99.90;;;;;;5111892;28;20562;-70
2022/04/13 05:04:34;;;;;;;15.83;9.67;;;6.90;99.90;;;;;;5111768;28;20201;-70
2022/04/13 05:07:02;;;;;;;15.07;8.70;;;7.00;99.90;;;;;;5111504;28;20193;-70
2022/04/13 05:09:29;;;;;;;15.30;9.03;;;7.10;99.90;;;;;;5111063;28;20201;-70
2022/04/13 05:11:56;;;;;;;16.57;9.23;;;7.10;99.90;;;;;;5112880;28;20207;-70
2022/04/13 05:14:23;;;;;;;14.87;8.73;;;7.30;99.90;;;;;;5115132;28;20201;-70
2022/04/13 05:16:50;;;;;;;13.60;8.23;;;7.40;99.90;;;;;;5115204;28;20201;-70
2022/04/13 05:19:17;;;;;;;16.50;8.40;;;7.50;99.90;;;;;;5115274;28;20565;-70
2022/04/13 05:21:44;;;;;;;17.03;10.03;;;7.70;1.00;;;;;;5114671;28;20243;-70
2022/04/13 05:24:12;;;;;;;17.97;9.57;;;7.70;1.00;;;;;;5107676;28;20219;-70
2022/04/13 05:26:39;;;;;;;15.90;9.07;;;7.60;1.00;;;;;;5099800;28;20197;-71
2022/04/13 05:29:06;;;;;;;17.27;9.97;;;7.70;1.00;;;;;;5114152;28;20193;-71
2022/04/13 05:31:33;;;;;;;17.40;9.47;;;7.80;1.00;;;;;;5114198;28;20553;-70
2022/04/13 05:34:00;;;;;;;16.93;9.13;;;8.10;1.00;;;;;;5114745;28;20217;-70
2022/04/13 05:36:26;;;;;;;17.00;9.37;;;8.40;99.90;;;;;;5114718;28;20279;-70
2022/04/13 05:38:53;;;;;;;16.00;8.63;;;8.60;99.90;;;;;;5113827;28;20650;-70
2022/04/13 05:41:21;;;;;;;18.50;9.00;;;8.80;99.90;;;;;;5114309;28;20193;-70
2022/04/13 05:43:48;;;;;;;14.80;8.63;;;8.90;1.00;;;;;;5114687;28;20204;-70
2022/04/13 05:46:15;;;;;;;14.07;8.87;;;9.00;99.90;;;;;;5114363;28;20207;-70
2022/04/13 05:48:42;;;;;;;17.37;9.10;;;9.10;1.00;;;;;;5113590;28;20209;-70
2022/04/13 05:51:09;;;;;;;14.33;8.67;;;9.30;99.90;;;;;;5114996;28;20294;-70
2022/04/13 05:53:36;;;;;;;15.37;9.03;;;9.50;99.90;;;;;;5114328;28;20221;-70
2022/04/13 05:56:03;;;;;;;17.40;8.67;;;9.80;1.00;;;;;;5113703;28;20204;-70
2022/04/13 05:58:32;;;;;;;17.07;9.30;;;10.10;1.00;;;;;;5114675;28;20665;-70
2022/04/13 06:00:59;;;;;;;16.70;9.40;;;10.40;1.00;;;;;;5113994;28;20643;-70
2022/04/13 06:03:25;;;;;;;16.27;8.43;;;10.70;1.00;;;;;;5114423;28;20693;-70
2022/04/13 06:05:52;;;;;;;16.43;8.80;;;11.00;16.00;;;;;;5114809;28;20205;-70
2022/04/13 06:08:19;;;;;;;16.70;8.87;;;10.90;1.00;;;;;;5114168;28;20197;-70
2022/04/13 06:10:46;;;;;;;16.70;9.57;;;11.10;1.00;;;;;;5112497;27;20557;-70
2022/04/13 06:13:13;;;;;;;20.67;8.70;;;11.20;1.00;;;;;;5118053;27;20224;-70
2022/04/13 06:15:44;;;;;;;15.57;9.27;;;11.40;99.90;;;;;;5118183;27;20548;-70
2022/04/13 06:18:11;;;;;;;16.17;9.10;;;11.70;1.00;;;;;;5113663;27;20331;-70
2022/04/13 06:20:38;;;;;;;17.30;9.37;;;11.90;1.00;;;;;;5115021;27;20207;-70
2022/04/13 06:23:05;;;;;;;14.33;9.13;;;12.10;99.90;;;;;;5120071;27;20198;-70
2022/04/13 06:25:32;;;;;;;15.47;8.93;;;12.50;1.00;;;;;;5114492;27;20571;-70
2022/04/13 06:27:59;;;;;;;16.03;7.83;;;12.70;1.00;;;;;;5120642;27;20654;-70
2022/04/13 06:30:26;;;;;;;13.50;7.50;;;12.70;99.90;;;;;;5113136;28;20219;-70
2022/04/13 06:32:54;;;;;;;13.97;8.57;;;12.90;1.00;;;;;;5120685;27;20673;-71
2022/04/13 06:35:23;;;;;;;14.57;7.93;;;13.00;1.00;;;;;;5109769;27;20197;-70
2022/04/13 06:37:50;;;;;;;11.97;6.47;;;13.20;1.00;;;;;;5116425;27;20200;-70
2022/04/13 06:40:17;;;;;;;8.87;5.67;;;13.40;99.90;;;;;;5114750;27;20203;-71
2022/04/13 06:42:44;;;;;;;11.60;5.97;;;13.50;1.00;;;;;;5119652;27;20203;-70
2022/04/13 06:45:13;;;;;;;12.60;6.47;;;13.80;99.90;;;;;;5113070;27;20643;-70
2022/04/13 06:47:41;;;;;;;10.17;5.83;;;13.90;99.90;;;;;;5119603;27;20213;-71
2022/04/13 06:50:10;;;;;;;8.97;5.63;;;13.90;99.90;;;;;;5119758;27;20554;-71
2022/04/13 06:52:39;;;;;;;14.10;6.03;;;14.00;60.70;;;;;;5112974;28;20217;-71
2022/04/13 06:55:09;;;;;;;6.57;4.87;;;14.10;1.00;;;;;;5113698;28;20661;-71
2022/04/13 06:57:37;;;;;;;11.53;5.87;;;14.20;73.70;;;;;;5113119;28;20242;-71
2022/04/13 07:00:06;;;;;;;10.40;5.17;;;14.20;72.30;;;;;;5112699;28;20207;-71
2022/04/13 07:02:34;;;;;;;13.73;6.20;;;14.60;74.50;;;;;;5112276;28;20201;-71
2022/04/13 07:05:01;;;;;;;9.80;5.72;;;14.90;75.90;;;;;;5113318;28;20212;-71
2022/04/13 07:07:29;;;;;;;10.13;6.90;;;14.90;76.00;;;;;;5112750;28;20203;-72
2022/04/13 07:09:56;;;;;;;11.73;6.50;;;14.60;99.90;;;;;;5112336;28;20201;-71
2022/04/13 07:12:23;;;;;;;11.35;6.15;;;14.30;1.00;;;;;;5112581;28;20573;-71
2022/04/13 07:14:50;;;;;;;8.38;5.72;;;14.50;1.00;;;;;;5113994;28;20205;-71
2022/04/13 07:17:17;;;;;;;7.95;4.90;;;15.00;99.90;;;;;;5112824;28;20569;-72
2022/04/13 07:19:44;;;;;;;8.25;4.40;;;15.40;1.00;;;;;;5113111;28;20582;-72
2022/04/13 07:22:10;;;;;;;24.20;6.32;;;15.20;1.00;;;;;;5112958;28;20201;-72
2022/04/13 07:24:38;;;;;;;15.77;6.47;;;15.20;99.90;;;;;;5113314;28;20503;-72
2022/04/13 07:27:06;;;;;;;13.17;6.53;;;14.90;1.00;;;;;;5112572;28;20213;-72
2022/04/13 07:29:32;;;;;;;16.83;6.53;;;14.90;99.90;;;;;;5112138;28;20199;-72
2022/04/13 07:31:59;;;;;;;15.57;5.80;;;15.20;1.00;;;;;;5112432;28;20201;-71
2022/04/13 07:34:26;;;;;;;19.07;8.03;;;15.80;20.30;;;;;;5112709;28;20217;-72
2022/04/13 07:36:53;;;;;;;19.05;7.10;;;15.90;1.00;;;;;;5113055;28;20205;-72
2022/04/13 07:39:20;;;;;;;14.18;6.53;;;15.90;1.00;;;;;;5111335;28;20253;-73
2022/04/13 07:41:50;;;;;;;17.17;6.40;;;16.10;13.80;;;;;;5111297;28;20227;-73
2022/04/13 07:44:18;;;;;;;18.60;7.95;;;15.90;99.90;;;;;;5110902;28;20266;-72
2022/04/13 07:46:45;;;;;;;20.42;8.23;;;16.00;1.00;;;;;;5111574;28;20635;-73
2022/04/13 07:49:12;;;;;;;18.75;8.25;;;15.80;1.00;;;;;;5111468;28;20189;-73
2022/04/13 07:51:40;;;;;;;13.30;6.93;;;15.90;1.00;;;;;;5101149;28;20201;-73
2022/04/13 07:54:08;;;;;;;15.18;7.45;;;16.00;1.00;;;;;;5112164;28;20258;-73
2022/04/13 07:56:35;;;;;;;18.13;7.97;;;16.00;1.00;;;;;;5110843;28;20236;-73
2022/04/13 07:59:04;;;;;;;21.67;8.15;;;16.00;1.00;;;;;;5112131;28;20283;-73
2022/04/13 08:01:31;;;;;;;15.60;6.78;;;16.20;1.00;;;;;;5112104;28;20236;-73
2022/04/13 08:03:58;;;;;;;13.20;5.47;;;16.50;1.00;;;;;;5111970;28;20663;-73
2022/04/13 08:06:25;;;;;;;11.40;4.65;;;17.10;1.00;;;;;;5112872;28;20192;-73
2022/04/13 08:08:52;;;;;;;5.78;3.80;;;17.50;54.70;;;;;;5110108;28;20252;-73
2022/04/13 08:11:19;;;;;;;5.28;3.33;;;17.60;45.60;;;;;;5111096;28;20208;-73
2022/04/13 08:13:46;;;;;;;4.18;3.22;;;18.00;40.00;;;;;;5111480;28;20278;-73
2022/04/13 08:16:14;;;;;;;3.28;2.97;;;18.20;30.80;;;;;;5110880;28;20262;-73
2022/04/13 08:18:41;;;;;;;6.07;3.50;;;18.40;28.90;;;;;;5111491;28;20269;-73
2022/04/13 08:21:08;;;;;;;4.70;3.45;;;18.40;26.60;;;;;;5112359;28;20197;-73
2022/04/13 08:23:35;;;;;;;4.47;3.50;;;18.50;27.00;;;;;;5110390;28;20752;-73
2022/04/13 08:26:02;;;;;;;6.35;3.53;;;18.70;27.80;;;;;;5092277;28;20651;-73
2022/04/13 08:28:29;;;;;;;5.07;3.03;;;18.60;28.90;;;;;;5110726;28;20201;-73
2022/04/13 08:30:56;;;;;;;4.72;3.03;;;18.70;25.80;;;;;;5110497;28;20246;-73
2022/04/13 08:33:25;;;;;;;5.28;3.10;;;18.50;24.90;;;;;;5110866;28;20259;-73
2022/04/13 08:35:52;;;;;;;3.78;2.97;;;18.40;25.40;;;;;;5110800;28;20245;-73
2022/04/13 08:38:20;;;;;;;6.80;3.22;;;18.50;25.50;;;;;;5111581;28;20242;-73
2022/04/13 08:40:58;;;;;;;4.32;3.25;;;18.50;25.50;;;;;;5109240;28;20328;-73
2022/04/13 08:43:30;;;;;;;5.00;3.15;;;18.60;25.90;;;;;;5110953;28;20293;-73
2022/04/13 08:46:00;;;;;;;3.45;2.80;;;18.80;28.50;;;;;;5111241;28;20265;-73
2022/04/13 08:48:29;;;;;;;5.10;2.78;;;19.10;28.40;;;;;;5112663;28;20582;-73
2022/04/13 08:50:59;;;;;;;4.47;2.78;;;19.40;29.10;;;;;;5115427;28;20246;-73
2022/04/13 08:53:30;;;;;;;4.70;3.13;;;19.30;26.00;;;;;;5116627;28;20220;-73
2022/04/13 08:55:59;;;;;;;6.90;3.35;;;19.20;26.20;;;;;;5111262;28;20197;-73
2022/04/13 08:58:36;;;;;;;6.95;3.35;;;19.40;24.50;;;;;;5116394;28;20201;-73
2022/04/13 09:01:09;;;;;;;8.00;2.97;;;19.50;24.00;;;;;;5092951;28;20624;-73
2022/04/13 09:03:43;;;;;;;4.80;3.20;;;19.50;22.00;;;;;;5110428;28;20277;-73
2022/04/13 09:06:11;;;;;;;3.65;3.10;;;19.70;22.70;;;;;;5115409;27;20632;-73
2022/04/13 09:08:47;;;;;;;4.60;3.17;;;19.80;23.50;;;;;;5113541;28;20203;-73
2022/04/13 09:11:14;;;;;;;4.10;2.78;;;19.80;21.70;;;;;;5108486;28;20201;-73
2022/04/13 09:13:44;;;;;;;3.58;3.05;;;20.00;20.20;;;;;;5115142;28;20217;-73
2022/04/13 09:16:12;;;;;;;3.47;2.72;;;19.90;17.50;;;;;;5114974;28;20201;-73
2022/04/13 09:18:40;;;;;;;4.25;3.25;;;20.00;18.50;;;;;;5112538;28;20224;-73
2022/04/13 09:21:07;;;;;;;6.57;3.15;;;20.30;18.40;;;;;;5114351;28;20258;-73
2022/04/13 09:23:34;;;;;;;4.60;2.78;;;20.50;16.70;;;;;;5112525;28;20209;-73
2022/04/13 09:26:03;;;;;;;4.70;2.83;;;20.60;16.10;;;;;;5113796;28;20274;-73
2022/04/13 09:28:30;;;;;;;5.18;3.10;;;20.70;16.30;;;;;;5112131;28;20193;-73
2022/04/13 09:30:57;;;;;;;4.13;2.88;;;20.90;16.30;;;;;;5114476;28;20362;-73
2022/04/13 09:33:25;;;;;;;6.45;3.17;;;20.70;14.60;;;;;;5114269;28;20221;-73
2022/04/13 09:35:54;;;;;;;4.47;3.35;;;20.70;14.10;;;;;;5110685;28;20287;-73
2022/04/13 09:38:21;;;;;;;5.82;3.17;;;21.00;12.30;;;;;;5115006;28;20196;-73
2022/04/13 09:40:51;;;;;;;5.05;2.80;;;21.00;14.80;;;;;;5114171;28;20193;-72
2022/04/13 09:43:19;;;;;;;4.82;3.40;;;21.10;15.20;;;;;;5114088;28;20655;-73
2022/04/13 09:45:49;;;;;;;6.57;3.55;;;21.30;13.80;;;;;;5113654;28;20209;-73
2022/04/13 09:48:17;;;;;;;6.70;3.40;;;21.40;13.40;;;;;;5113738;28;20200;-73
2022/04/13 09:50:47;;;;;;;7.38;3.63;;;21.80;14.70;;;;;;5114538;27;20204;-73
2022/04/13 09:53:16;;;;;;;4.43;3.25;;;21.80;14.00;;;;;;5114268;28;20254;-73
2022/04/13 09:55:44;;;;;;;5.65;3.13;;;21.80;14.10;;;;;;5113787;28;20204;-73
2022/04/13 09:58:12;;;;;;;6.50;3.50;;;21.70;13.60;;;;;;5114182;28;20201;-73
2022/04/13 10:00:40;;;;;;;5.28;2.97;;;21.80;13.10;;;;;;5110308;28;20192;-73
2022/04/13 10:03:10;;;;;;;7.18;3.00;;;22.20;11.40;;;;;;5111441;28;20254;-73
2022/04/13 10:05:37;;;;;;;4.25;3.20;;;22.10;11.80;;;;;;5113920;28;20201;-73
2022/04/13 10:08:06;;;;;;;4.90;2.83;;;22.00;12.10;;;;;;5110095;28;20250;-73
2022/04/13 10:10:35;;;;;;;7.70;3.03;;;21.90;11.50;;;;;;5113688;28;20205;-73
2022/04/13 10:13:02;;;;;;;6.55;3.10;;;21.90;13.60;;;;;;5114151;28;20235;-73
2022/04/13 10:15:29;;;;;;;5.45;2.75;;;22.20;13.50;;;;;;5112520;28;20654;-73
2022/04/13 10:18:00;;;;;;;6.50;3.25;;;22.50;9.90;;;;;;5109137;28;20257;-73
2022/04/13 10:20:43;;;;;;;4.97;2.88;;;22.70;11.90;;;;;;5111768;28;20236;-73
2022/04/13 10:23:10;;;;;;;5.20;3.03;;;23.00;11.80;;;;;;5113803;28;20254;-73
2022/04/13 10:25:39;;;;;;;7.25;2.97;;;22.70;10.60;;;;;;5112861;28;20243;-73
2022/04/13 10:28:07;;;;;;;6.22;3.38;;;22.80;11.70;;;;;;5112730;28;20208;-73
2022/04/13 10:30:35;;;;;;;4.47;2.80;;;23.00;10.70;;;;;;5113425;28;20201;-73
2022/04/13 10:33:04;;;;;;;8.20;2.88;;;23.00;8.90;;;;;;5112219;28;20222;-73
2022/04/13 10:35:32;;;;;;;8.10;3.40;;;22.70;10.20;;;;;;5113410;28;20225;-73
2022/04/13 10:38:00;;;;;;;8.80;3.60;;;22.30;10.70;;;;;;5111936;28;20703;-73
2022/04/13 10:40:30;;;;;;;9.13;2.95;;;22.10;12.50;;;;;;5108810;28;20204;-73
2022/04/13 10:43:00;;;;;;;7.93;2.90;;;22.50;15.10;;;;;;5111953;28;20205;-73
2022/04/13 10:45:28;;;;;;;8.30;3.13;;;23.20;13.20;;;;;;5111786;28;20203;-73
2022/04/13 10:47:59;;;;;;;7.28;3.30;;;23.10;12.70;;;;;;5112273;28;20197;-73
2022/04/13 10:50:33;;;;;;;5.60;2.90;;;23.00;12.60;;;;;;5113295;28;20261;-73
2022/04/13 10:53:12;;;;;;;8.68;3.20;;;23.20;12.80;;;;;;5112256;28;20197;-72
2022/04/13 10:55:41;;;;;;;8.50;3.20;;;23.70;11.90;;;;;;5112167;28;20221;-73
2022/04/13 10:58:16;;;;;;;6.57;2.58;;;23.70;9.70;;;;;;5112707;28;20283;-73
2022/04/13 11:00:49;;;;;;;6.20;2.70;;;23.80;10.40;;;;;;5111348;28;20205;-73
2022/04/13 11:03:19;;;;;;;9.98;2.70;;;24.00;9.90;;;;;;5108611;28;20201;-74
2022/04/13 11:05:47;;;;;;;8.70;3.40;;;24.10;9.70;;;;;;5108530;28;20259;-74
2022/04/13 11:08:22;;;;;;;9.00;3.05;;;24.30;9.10;;;;;;5111785;28;20688;-74
2022/04/13 11:10:50;;;;;;;7.68;2.63;;;23.90;8.80;;;;;;5094799;28;20205;-75
2022/04/13 11:13:20;;;;;;;7.05;2.83;;;23.70;7.40;;;;;;5110041;28;20204;-74
2022/04/13 11:15:49;;;;;;;6.38;3.05;;;23.90;11.00;;;;;;5095867;28;20228;-75
2022/04/13 11:18:18;;;;;;;6.85;2.65;;;24.20;7.10;;;;;;5112376;28;20883;-74
2022/04/13 11:21:07;;;;;;;5.72;3.10;;;24.20;6.70;;;;;;5112703;28;20645;-74
2022/04/13 11:23:51;;;;;;;6.32;2.92;;;24.40;6.20;;;;;;5097430;28;20586;-74
2022/04/13 11:26:26;;;;;;;6.00;2.78;;;24.30;7.20;;;;;;5111094;28;20200;-75
2022/04/13 11:29:15;;;;;;;9.88;3.00;;;24.80;5.80;;;;;;5111655;28;20214;-75
2022/04/13 11:32:09;;;;;;;6.95;2.90;;;24.30;5.20;;;;;;5111105;28;20287;-74
2022/04/13 11:34:39;;;;;;;8.15;3.20;;;24.30;6.10;;;;;;5112322;28;20217;-74
2022/04/13 11:37:07;;;;;;;5.88;3.00;;;24.50;5.60;;;;;;5110657;28;20296;-74
2022/04/13 11:39:52;;;;;;;6.95;3.10;;;24.30;5.30;;;;;;5110802;28;20192;-74
2022/04/13 11:42:53;;;;;;;4.88;2.58;;;23.90;5.50;;;;;;5110445;28;20193;-74
2022/04/13 11:45:23;;;;;;;7.68;2.70;;;24.00;7.70;;;;;;5107681;28;20600;-74
2022/04/13 11:48:03;;;;;;;6.90;3.00;;;24.50;6.60;;;;;;5111133;28;20376;-75
2022/04/13 11:50:33;;;;;;;9.32;3.28;;;24.40;5.40;;;;;;5111467;28;20243;-75
2022/04/13 11:53:05;;;;;;;7.43;2.95;;;24.50;4.70;;;;;;5112358;28;20254;-74
2022/04/13 11:55:35;;;;;;;5.88;2.72;;;24.30;2.30;;;;;;5110540;28;20623;-74
2022/04/13 11:58:21;;;;;;;8.90;3.80;;;24.10;4.10;;;;;;5110863;28;20674;-75
2022/04/13 12:00:58;;;;;;;7.60;2.90;;;24.30;2.50;;;;;;5110939;28;20293;-75
2022/04/13 12:03:28;;;;;;;7.68;3.10;;;23.70;3.00;;;;;;5110279;28;20196;-74
2022/04/13 12:05:58;;;;;;;7.18;2.78;;;23.90;3.90;;;;;;5111960;28;20197;-74
2022/04/13 12:08:27;;;;;;;7.20;2.92;;;24.10;5.10;;;;;;5110668;28;20201;-75
2022/04/13 12:10:58;;;;;;;7.60;3.15;;;23.90;4.90;;;;;;5110741;28;20209;-74
2022/04/13 12:13:26;;;;;;;6.65;3.63;;;24.10;2.00;;;;;;5111132;28;20201;-75
2022/04/13 12:15:56;;;;;;;10.23;3.67;;;24.20;1.60;;;;;;5112409;28;20332;-74
2022/04/13 12:18:25;;;;;;;10.45;3.25;;;24.20;1.00;;;;;;5111531;28;20205;-74
2022/04/13 12:20:54;;;;;;;8.95;3.25;;;24.50;1.00;;;;;;5112107;28;20197;-74
2022/04/13 12:23:23;;;;;;;9.48;3.30;;;24.40;1.00;;;;;;5111698;28;20321;-74
2022/04/13 12:25:51;;;;;;;8.38;3.40;;;23.70;1.00;;;;;;5111152;28;20646;-74
2022/04/13 12:28:22;;;;;;;9.77;2.90;;;23.60;1.00;;;;;;5111774;28;20489;-74
2022/04/13 12:30:57;;;;;;;8.20;2.90;;;23.50;3.10;;;;;;5110636;28;20659;-74
2022/04/13 12:33:26;;;;;;;9.25;3.92;;;23.60;1.40;;;;;;5111428;28;20200;-75
2022/04/13 12:35:55;;;;;;;5.47;2.67;;;24.30;1.60;;;;;;5110071;28;20248;-75
2022/04/13 12:38:24;;;;;;;6.57;2.95;;;24.50;1.00;;;;;;5108336;28;20247;-75
2022/04/13 12:41:01;;;;;;;7.68;2.90;;;24.50;1.70;;;;;;5104702;28;20259;-75
2022/04/13 12:43:28;;;;;;;8.82;3.15;;;24.50;1.50;;;;;;5108934;28;20601;-75
2022/04/13 12:45:57;;;;;;;8.35;3.08;;;24.70;1.00;;;;;;5107267;28;20204;-74
2022/04/13 12:48:27;;;;;;;5.53;2.83;;;24.60;1.00;;;;;;5117396;28;20204;-74
2022/04/13 12:50:56;;;;;;;9.10;3.10;;;24.40;1.00;;;;;;5110285;28;20223;-74
2022/04/13 12:53:23;;;;;;;11.65;4.38;;;23.70;1.00;;;;;;5108839;28;20250;-75
2022/04/13 12:55:57;;;;;;;6.50;3.05;;;24.40;1.00;;;;;;5110880;28;20266;-75
2022/04/13 12:58:24;;;;;;;7.90;3.17;;;24.60;1.00;;;;;;5108740;28;20201;-74